sensor_id;sensor_type;location;lat;lon;timestamp;pressure;altitude;pressure_sealevel;temperature;humidity
64200;BME280;50516;52.272;5.136;2022-08-03T00:01:34;101507.84;;;21.35;73.87
64200;BME280;50516;52.272;5.136;2022-08-03T00:03:59;101507.00;;;21.26;74.48
64200;BME280;50516;52.272;5.136;2022-08-03T00:06:25;101509.47;;;21.36;73.85
64200;BME280;50516;52.272;5.136;2022-08-03T00:08:50;101511.78;;;21.25;74.54
64200;BME280;50516;52.272;5.136;2022-08-03T00:11:16;101510.63;;;21.26;74.11
64200;BME280;50516;52.272;5.136;2022-08-03T00:13:42;101512.09;;;21.32;74.08
64200;BME280;50516;52.272;5.136;2022-08-03T00:16:08;101506.34;;;21.29;74.33
64200;BME280;50516;52.272;5.136;2022-08-03T00:18:35;101509.31;;;21.32;74.23
64200;BME280;50516;52.272;5.136;2022-08-03T00:21:00;101509.81;;;21.26;74.30
64200;BME280;50516;52.272;5.136;2022-08-03T00:23:26;101510.78;;;21.21;74.64
64200;BME280;50516;52.272;5.136;2022-08-03T00:25:51;101510.63;;;21.26;74.69
64200;BME280;50516;52.272;5.136;2022-08-03T00:28:17;101512.28;;;21.27;74.41
64200;BME280;50516;52.272;5.136;2022-08-03T00:30:42;101512.13;;;21.24;74.83
64200;BME280;50516;52.272;5.136;2022-08-03T00:33:07;101506.69;;;21.27;74.50
64200;BME280;50516;52.272;5.136;2022-08-03T00:35:35;101510.44;;;21.31;74.35
64200;BME280;50516;52.272;5.136;2022-08-03T00:38:00;101514.56;;;21.34;74.35
64200;BME280;50516;52.272;5.136;2022-08-03T00:40:26;101508.50;;;21.32;74.46
64200;BME280;50516;52.272;5.136;2022-08-03T00:42:57;101503.72;;;21.32;74.39
64200;BME280;50516;52.272;5.136;2022-08-03T00:45:27;101506.69;;;21.27;74.63
64200;BME280;50516;52.272;5.136;2022-08-03T00:47:54;101497.31;;;21.23;74.72
64200;BME280;50516;52.272;5.136;2022-08-03T00:50:21;101501.94;;;21.19;75.31
64200;BME280;50516;52.272;5.136;2022-08-03T00:52:55;101500.94;;;21.15;74.86
64200;BME280;50516;52.272;5.136;2022-08-03T00:55:21;101495.84;;;21.17;75.05
64200;BME280;50516;52.272;5.136;2022-08-03T00:57:47;101498.47;;;21.13;75.12
64200;BME280;50516;52.272;5.136;2022-08-03T01:00:15;101488.63;;;21.16;74.91
64200;BME280;50516;52.272;5.136;2022-08-03T01:02:41;101485.81;;;21.16;75.26
64200;BME280;50516;52.272;5.136;2022-08-03T01:05:07;101484.16;;;21.15;75.29
64200;BME280;50516;52.272;5.136;2022-08-03T01:10:40;101485.81;;;21.07;75.47
64200;BME280;50516;52.272;5.136;2022-08-03T01:13:35;101483.38;;;21.06;75.45
64200;BME280;50516;52.272;5.136;2022-08-03T01:16:10;101482.19;;;21.07;75.33
64200;BME280;50516;52.272;5.136;2022-08-03T01:21:23;101485.34;;;20.96;76.18
64200;BME280;50516;52.272;5.136;2022-08-03T01:24:04;101481.72;;;20.87;75.89
64200;BME280;50516;52.272;5.136;2022-08-03T01:29:15;101478.75;;;20.92;75.99
64200;BME280;50516;52.272;5.136;2022-08-03T01:31:53;101474.34;;;20.91;76.02
64200;BME280;50516;52.272;5.136;2022-08-03T01:34:22;101468.22;;;20.89;76.71
64200;BME280;50516;52.272;5.136;2022-08-03T01:36:52;101468.22;;;20.89;76.40
64200;BME280;50516;52.272;5.136;2022-08-03T01:39:21;101473.50;;;20.91;75.83
64200;BME280;50516;52.272;5.136;2022-08-03T01:41:53;101468.41;;;20.93;76.05
64200;BME280;50516;52.272;5.136;2022-08-03T01:44:25;101474.66;;;20.90;76.43
64200;BME280;50516;52.272;5.136;2022-08-03T01:46:52;101466.09;;;20.86;76.64
64200;BME280;50516;52.272;5.136;2022-08-03T01:49:18;101469.38;;;20.79;76.40
64200;BME280;50516;52.272;5.136;2022-08-03T01:51:46;101470.34;;;20.75;77.29
64200;BME280;50516;52.272;5.136;2022-08-03T01:54:12;101464.28;;;20.64;77.29
64200;BME280;50516;52.272;5.136;2022-08-03T01:56:39;101463.56;;;20.58;78.20
64200;BME280;50516;52.272;5.136;2022-08-03T01:59:07;101464.38;;;20.50;78.33
64200;BME280;50516;52.272;5.136;2022-08-03T02:01:35;101464.75;;;20.57;78.13
64200;BME280;50516;52.272;5.136;2022-08-03T02:04:02;101469.53;;;20.66;77.82
64200;BME280;50516;52.272;5.136;2022-08-03T02:06:31;101456.88;;;20.68;77.87
64200;BME280;50516;52.272;5.136;2022-08-03T02:08:58;101453.41;;;20.63;78.39
64200;BME280;50516;52.272;5.136;2022-08-03T02:11:25;101458.16;;;20.53;78.33
64200;BME280;50516;52.272;5.136;2022-08-03T02:13:52;101452.56;;;20.53;78.31
64200;BME280;50516;52.272;5.136;2022-08-03T02:16:21;101458.84;;;20.59;78.26
64200;BME280;50516;52.272;5.136;2022-08-03T02:18:47;101462.31;;;20.65;78.05
64200;BME280;50516;52.272;5.136;2022-08-03T02:21:13;101458.38;;;20.66;78.57
64200;BME280;50516;52.272;5.136;2022-08-03T02:23:39;101458.84;;;20.59;77.95
64200;BME280;50516;52.272;5.136;2022-08-03T02:26:08;101452.91;;;20.52;78.17
64200;BME280;50516;52.272;5.136;2022-08-03T02:28:39;101453.06;;;20.55;78.44
64200;BME280;50516;52.272;5.136;2022-08-03T02:31:11;101448.13;;;20.52;78.62
64200;BME280;50516;52.272;5.136;2022-08-03T02:33:50;101449.13;;;20.56;78.38
64200;BME280;50516;52.272;5.136;2022-08-03T02:36:22;101452.09;;;20.51;78.93
64200;BME280;50516;52.272;5.136;2022-08-03T02:38:51;101448.13;;;20.52;78.70
64200;BME280;50516;52.272;5.136;2022-08-03T02:41:21;101454.69;;;20.39;79.70
64200;BME280;50516;52.272;5.136;2022-08-03T02:43:51;101441.41;;;20.45;79.28
64200;BME280;50516;52.272;5.136;2022-08-03T02:46:19;101448.13;;;20.35;79.52
64200;BME280;50516;52.272;5.136;2022-08-03T02:48:47;101438.75;;;20.39;79.45
64200;BME280;50516;52.272;5.136;2022-08-03T02:51:15;101432.69;;;20.29;79.96
64200;BME280;50516;52.272;5.136;2022-08-03T02:53:44;101438.75;;;20.31;80.26
64200;BME280;50516;52.272;5.136;2022-08-03T02:56:10;101438.44;;;20.32;79.84
64200;BME280;50516;52.272;5.136;2022-08-03T02:58:38;101426.59;;;20.27;80.10
64200;BME280;50516;52.272;5.136;2022-08-03T03:01:05;101429.56;;;20.30;80.00
64200;BME280;50516;52.272;5.136;2022-08-03T03:03:32;101432.84;;;20.32;79.93
64200;BME280;50516;52.272;5.136;2022-08-03T03:05:59;101435.63;;;20.23;79.83
64200;BME280;50516;52.272;5.136;2022-08-03T03:08:25;101433.16;;;20.31;79.84
64200;BME280;50516;52.272;5.136;2022-08-03T03:10:52;101431.84;;;20.28;80.19
64200;BME280;50516;52.272;5.136;2022-08-03T03:13:19;101434.78;;;20.23;80.57
64200;BME280;50516;52.272;5.136;2022-08-03T03:15:46;101427.91;;;20.29;80.09
64200;BME280;50516;52.272;5.136;2022-08-03T03:18:13;101423.78;;;20.27;80.35
64200;BME280;50516;52.272;5.136;2022-08-03T03:20:39;101434.31;;;20.30;79.85
64200;BME280;50516;52.272;5.136;2022-08-03T03:23:06;101422.81;;;20.22;80.33
64200;BME280;50516;52.272;5.136;2022-08-03T03:25:33;101435.91;;;20.13;80.68
64200;BME280;50516;52.272;5.136;2022-08-03T03:28:00;101429.38;;;20.27;nan
64200;BME280;50516;52.272;5.136;2022-08-03T03:30:26;101423.78;;;20.27;80.20
64200;BME280;50516;52.272;5.136;2022-08-03T03:32:52;101438.59;;;20.27;80.25
64200;BME280;50516;52.272;5.136;2022-08-03T03:35:18;101427.75;;;20.34;79.73
64200;BME280;50516;52.272;5.136;2022-08-03T03:37:44;101433.81;;;20.28;79.40
64200;BME280;50516;52.272;5.136;2022-08-03T03:40:10;101431.84;;;20.28;78.91
64200;BME280;50516;52.272;5.136;2022-08-03T03:42:36;101431.19;;;20.22;79.78
64200;BME280;50516;52.272;5.136;2022-08-03T03:45:06;101437.41;;;20.19;79.82
64200;BME280;50516;52.272;5.136;2022-08-03T03:47:35;101436.59;;;20.19;79.64
64200;BME280;50516;52.272;5.136;2022-08-03T03:50:03;101435.75;;;20.18;79.76
64200;BME280;50516;52.272;5.136;2022-08-03T03:52:28;101437.41;;;20.19;79.47
64200;BME280;50516;52.272;5.136;2022-08-03T03:54:54;101441.78;;;20.03;80.69
64200;BME280;50516;52.272;5.136;2022-08-03T03:57:19;101434.72;;;20.05;80.49
64200;BME280;50516;52.272;5.136;2022-08-03T03:59:44;101432.41;;;19.99;80.53
64200;BME280;50516;52.272;5.136;2022-08-03T04:02:11;101437.81;;;20.04;80.64
64200;BME280;50516;52.272;5.136;2022-08-03T04:04:37;101426.88;;;20.08;80.31
64200;BME280;50516;52.272;5.136;2022-08-03T04:07:23;101430.63;;;20.03;80.67
64200;BME280;50516;52.272;5.136;2022-08-03T04:10:20;101436.75;;;20.14;80.45
64200;BME280;50516;52.272;5.136;2022-08-03T04:13:09;101442.81;;;20.16;80.57
64200;BME280;50516;52.272;5.136;2022-08-03T04:15:38;101440.84;;;20.16;79.65
64200;BME280;50516;52.272;5.136;2022-08-03T04:18:06;101443.13;;;20.14;80.35
64200;BME280;50516;52.272;5.136;2022-08-03T04:20:34;101439.38;;;20.19;79.58
64200;BME280;50516;52.272;5.136;2022-08-03T04:23:01;101437.09;;;20.21;79.53
64200;BME280;50516;52.272;5.136;2022-08-03T04:25:30;101440.34;;;20.23;79.61
64200;BME280;50516;52.272;5.136;2022-08-03T04:27:58;101444.81;;;20.24;78.84
64200;BME280;50516;52.272;5.136;2022-08-03T04:30:28;101444.00;;;20.32;78.98
64200;BME280;50516;52.272;5.136;2022-08-03T04:32:56;101439.91;;;20.38;78.99
64200;BME280;50516;52.272;5.136;2022-08-03T04:35:28;101440.88;;;20.34;79.62
64200;BME280;50516;52.272;5.136;2022-08-03T04:38:00;101445.81;;;20.37;79.14
64200;BME280;50516;52.272;5.136;2022-08-03T04:40:30;101446.00;;;20.49;78.69
64200;BME280;50516;52.272;5.136;2022-08-03T04:42:59;101449.47;;;20.46;78.60
64200;BME280;50516;52.272;5.136;2022-08-03T04:45:26;101449.25;;;20.42;79.24
64200;BME280;50516;52.272;5.136;2022-08-03T04:47:52;101447.31;;;20.52;78.61
64200;BME280;50516;52.272;5.136;2022-08-03T04:50:18;101451.94;;;20.48;79.11
64200;BME280;50516;52.272;5.136;2022-08-03T04:52:44;101453.53;;;20.49;78.94
64200;BME280;50516;52.272;5.136;2022-08-03T04:55:10;101459.00;;;20.63;78.61
64200;BME280;50516;52.272;5.136;2022-08-03T04:57:35;101458.84;;;20.59;78.74
64200;BME280;50516;52.272;5.136;2022-08-03T05:00:01;101457.91;;;20.72;78.51
64200;BME280;50516;52.272;5.136;2022-08-03T05:02:26;101464.13;;;20.69;78.38
64200;BME280;50516;52.272;5.136;2022-08-03T05:04:52;101470.47;;;20.61;78.93
64200;BME280;50516;52.272;5.136;2022-08-03T05:07:17;101467.41;;;20.71;78.49
64200;BME280;50516;52.272;5.136;2022-08-03T05:09:43;101472.81;;;20.68;78.52
64200;BME280;50516;52.272;5.136;2022-08-03T05:12:09;101475.56;;;20.59;78.84
64200;BME280;50516;52.272;5.136;2022-08-03T05:14:35;101468.19;;;20.63;79.08
64200;BME280;50516;52.272;5.136;2022-08-03T05:17:06;101467.53;;;20.57;79.18
64200;BME280;50516;52.272;5.136;2022-08-03T05:19:32;101468.06;;;20.68;79.15
64200;BME280;50516;52.272;5.136;2022-08-03T05:21:57;101463.97;;;20.66;79.00
64200;BME280;50516;52.272;5.136;2022-08-03T05:24:23;101476.44;;;20.77;78.87
64200;BME280;50516;52.272;5.136;2022-08-03T05:26:48;101476.81;;;20.93;78.16
64200;BME280;50516;52.272;5.136;2022-08-03T05:29:14;101479.22;;;20.94;78.61
64200;BME280;50516;52.272;5.136;2022-08-03T05:31:39;101479.44;;;21.15;77.56
64200;BME280;50516;52.272;5.136;2022-08-03T05:34:05;101483.53;;;21.09;77.91
64200;BME280;50516;52.272;5.136;2022-08-03T05:36:30;101482.69;;;21.26;77.00
64200;BME280;50516;52.272;5.136;2022-08-03T05:38:55;101484.16;;;21.32;77.32
64200;BME280;50516;52.272;5.136;2022-08-03T05:41:21;101478.91;;;21.31;77.22
64200;BME280;50516;52.272;5.136;2022-08-03T05:43:46;101484.84;;;21.21;77.26
64200;BME280;50516;52.272;5.136;2022-08-03T05:46:12;101477.78;;;21.32;77.45
64200;BME280;50516;52.272;5.136;2022-08-03T05:48:37;101481.88;;;21.26;77.00
64200;BME280;50516;52.272;5.136;2022-08-03T05:51:03;101477.09;;;21.44;76.89
64200;BME280;50516;52.272;5.136;2022-08-03T05:53:34;101476.44;;;21.47;76.40
64200;BME280;50516;52.272;5.136;2022-08-03T05:55:59;101478.41;;;21.55;76.27
64200;BME280;50516;52.272;5.136;2022-08-03T05:58:25;101469.66;;;21.65;76.44
64200;BME280;50516;52.272;5.136;2022-08-03T06:00:50;101476.28;;;21.61;76.14
64200;BME280;50516;52.272;5.136;2022-08-03T06:03:15;101467.72;;;21.57;76.49
64200;BME280;50516;52.272;5.136;2022-08-03T06:05:41;101470.66;;;21.69;75.76
64200;BME280;50516;52.272;5.136;2022-08-03T06:08:06;101472.50;;;22.04;75.15
64200;BME280;50516;52.272;5.136;2022-08-03T06:10:32;101469.00;;;22.16;74.10
64200;BME280;50516;52.272;5.136;2022-08-03T06:12:57;101469.00;;;22.16;74.51
64200;BME280;50516;52.272;5.136;2022-08-03T06:15:22;101467.44;;;22.36;74.08
64200;BME280;50516;52.272;5.136;2022-08-03T06:17:49;101471.97;;;22.49;73.75
64200;BME280;50516;52.272;5.136;2022-08-03T06:20:16;101468.47;;;22.61;72.81
64200;BME280;50516;52.272;5.136;2022-08-03T06:22:42;101464.78;;;22.39;73.33
64200;BME280;50516;52.272;5.136;2022-08-03T06:25:08;101468.91;;;22.42;73.37
64200;BME280;50516;52.272;5.136;2022-08-03T06:27:33;101470.47;;;22.52;73.69
64200;BME280;50516;52.272;5.136;2022-08-03T06:30:00;101465.44;;;22.45;73.32
64200;BME280;50516;52.272;5.136;2022-08-03T06:32:26;101468.22;;;22.45;73.47
64200;BME280;50516;52.272;5.136;2022-08-03T06:34:51;101474.06;;;22.61;72.49
64200;BME280;50516;52.272;5.136;2022-08-03T06:37:16;101473.22;;;22.60;72.74
64200;BME280;50516;52.272;5.136;2022-08-03T06:39:42;101472.41;;;22.60;72.53
64200;BME280;50516;52.272;5.136;2022-08-03T06:42:07;101476.09;;;22.73;72.27
64200;BME280;50516;52.272;5.136;2022-08-03T06:44:34;101476.25;;;23.19;71.52
64200;BME280;50516;52.272;5.136;2022-08-03T06:46:59;101475.66;;;23.13;71.33
64200;BME280;50516;52.272;5.136;2022-08-03T06:49:25;101477.91;;;23.20;70.46
64200;BME280;50516;52.272;5.136;2022-08-03T06:51:51;101480.94;;;22.85;71.30
64200;BME280;50516;52.272;5.136;2022-08-03T06:54:18;101479.66;;;22.61;71.79
64200;BME280;50516;52.272;5.136;2022-08-03T06:56:43;101493.31;;;22.63;72.00
64200;BME280;50516;52.272;5.136;2022-08-03T06:59:09;101478.22;;;22.97;71.08
64200;BME280;50516;52.272;5.136;2022-08-03T07:01:34;101482.03;;;23.34;70.00
64200;BME280;50516;52.272;5.136;2022-08-03T07:03:59;101482.16;;;23.38;70.13
64200;BME280;50516;52.272;5.136;2022-08-03T07:06:25;101485.66;;;23.35;69.98
64200;BME280;50516;52.272;5.136;2022-08-03T07:08:50;101479.59;;;23.33;70.04
64200;BME280;50516;52.272;5.136;2022-08-03T07:11:16;101483.25;;;23.46;69.30
64200;BME280;50516;52.272;5.136;2022-08-03T07:13:41;101487.38;;;23.61;69.01
64200;BME280;50516;52.272;5.136;2022-08-03T07:16:07;101492.41;;;24.01;67.20
64200;BME280;50516;52.272;5.136;2022-08-03T07:18:33;101486.34;;;24.23;67.15
64200;BME280;50516;52.272;5.136;2022-08-03T07:21:02;101490.91;;;24.28;67.00
64200;BME280;50516;52.272;5.136;2022-08-03T07:23:27;101499.09;;;24.21;67.41
64200;BME280;50516;52.272;5.136;2022-08-03T07:25:53;101497.13;;;24.34;66.78
64200;BME280;50516;52.272;5.136;2022-08-03T07:28:19;101505.75;;;24.41;66.25
64200;BME280;50516;52.272;5.136;2022-08-03T07:30:44;101500.50;;;24.52;65.90
64200;BME280;50516;52.272;5.136;2022-08-03T07:33:10;101508.22;;;24.42;65.56
64200;BME280;50516;52.272;5.136;2022-08-03T07:35:35;101504.59;;;24.67;66.01
64200;BME280;50516;52.272;5.136;2022-08-03T07:38:00;101506.19;;;24.92;65.31
64200;BME280;50516;52.272;5.136;2022-08-03T07:40:26;101510.88;;;24.88;64.79
64200;BME280;50516;52.272;5.136;2022-08-03T07:42:51;101511.56;;;24.97;64.25
64200;BME280;50516;52.272;5.136;2022-08-03T07:45:17;101512.78;;;24.72;65.92
64200;BME280;50516;52.272;5.136;2022-08-03T07:47:42;101508.09;;;24.51;66.12
64200;BME280;50516;52.272;5.136;2022-08-03T07:50:08;101520.50;;;24.13;66.14
64200;BME280;50516;52.272;5.136;2022-08-03T07:52:33;101516.28;;;24.69;65.58
64200;BME280;50516;52.272;5.136;2022-08-03T07:55:24;101532.66;;;24.54;65.55
64200;BME280;50516;52.272;5.136;2022-08-03T07:58:07;101524.03;;;24.72;64.76
64200;BME280;50516;52.272;5.136;2022-08-03T08:00:43;101521.81;;;24.77;64.99
64200;BME280;50516;52.272;5.136;2022-08-03T08:03:09;101527.63;;;25.25;63.84
64200;BME280;50516;52.272;5.136;2022-08-03T08:05:35;101525.63;;;24.85;64.18
64200;BME280;50516;52.272;5.136;2022-08-03T08:08:01;101530.22;;;24.65;65.27
64200;BME280;50516;52.272;5.136;2022-08-03T08:10:26;101528.69;;;24.80;64.60
64200;BME280;50516;52.272;5.136;2022-08-03T08:12:52;101529.19;;;24.57;65.55
64200;BME280;50516;52.272;5.136;2022-08-03T08:15:18;101533.34;;;24.51;65.44
64200;BME280;50516;52.272;5.136;2022-08-03T08:17:52;101526.03;;;25.12;63.59
64200;BME280;50516;52.272;5.136;2022-08-03T08:20:26;101521.31;;;24.75;64.89
64200;BME280;50516;52.272;5.136;2022-08-03T08:22:54;101527.41;;;24.77;64.83
64200;BME280;50516;52.272;5.136;2022-08-03T08:25:20;101522.41;;;24.71;64.83
64200;BME280;50516;52.272;5.136;2022-08-03T08:27:48;101524.81;;;24.72;64.94
64200;BME280;50516;52.272;5.136;2022-08-03T08:30:16;101532.47;;;24.59;65.03
64200;BME280;50516;52.272;5.136;2022-08-03T08:32:43;101527.09;;;25.07;63.78
64200;BME280;50516;52.272;5.136;2022-08-03T08:35:09;101530.97;;;25.03;64.14
64200;BME280;50516;52.272;5.136;2022-08-03T08:37:35;101523.88;;;24.93;64.47
64200;BME280;50516;52.272;5.136;2022-08-03T08:40:01;101525.63;;;24.97;64.25
64200;BME280;50516;52.272;5.136;2022-08-03T08:42:26;101530.03;;;25.11;63.42
64200;BME280;50516;52.272;5.136;2022-08-03T08:44:52;101532.09;;;25.26;63.18
64200;BME280;50516;52.272;5.136;2022-08-03T08:47:18;101526.03;;;25.12;63.18
64200;BME280;50516;52.272;5.136;2022-08-03T08:49:53;101528.66;;;25.05;63.48
64200;BME280;50516;52.272;5.136;2022-08-03T08:52:25;101538.56;;;25.14;63.51
64200;BME280;50516;52.272;5.136;2022-08-03T08:54:59;101522.06;;;25.13;63.47
64200;BME280;50516;52.272;5.136;2022-08-03T08:57:34;101529.28;;;25.39;62.63
64200;BME280;50516;52.272;5.136;2022-08-03T09:00:05;101519.88;;;25.47;62.08
64200;BME280;50516;52.272;5.136;2022-08-03T09:02:33;101532.66;;;25.32;62.76
64200;BME280;50516;52.272;5.136;2022-08-03T09:04:59;101522.41;;;25.52;62.41
64200;BME280;50516;52.272;5.136;2022-08-03T09:07:26;101524.91;;;25.69;62.58
64200;BME280;50516;52.272;5.136;2022-08-03T09:09:53;101529.19;;;25.79;61.36
64200;BME280;50516;52.272;5.136;2022-08-03T09:12:18;101526.13;;;25.84;61.59
64200;BME280;50516;52.272;5.136;2022-08-03T09:14:44;101527.94;;;25.93;61.32
64200;BME280;50516;52.272;5.136;2022-08-03T09:17:10;101530.44;;;25.82;61.21
64200;BME280;50516;52.272;5.136;2022-08-03T09:19:35;101529.72;;;25.85;61.42
64200;BME280;50516;52.272;5.136;2022-08-03T09:22:09;101525.63;;;26.11;60.74
64200;BME280;50516;52.272;5.136;2022-08-03T09:24:36;101539.25;;;26.09;60.49
64200;BME280;50516;52.272;5.136;2022-08-03T09:27:05;101534.13;;;25.98;60.91
64200;BME280;50516;52.272;5.136;2022-08-03T09:29:32;101536.44;;;26.24;60.44
64200;BME280;50516;52.272;5.136;2022-08-03T09:32:03;101529.53;;;26.22;60.55
64200;BME280;50516;52.272;5.136;2022-08-03T09:34:28;101537.44;;;26.32;60.43
64200;BME280;50516;52.272;5.136;2022-08-03T09:36:54;101534.06;;;26.42;59.39
64200;BME280;50516;52.272;5.136;2022-08-03T09:39:24;101534.63;;;26.32;60.30
64200;BME280;50516;52.272;5.136;2022-08-03T09:42:05;101528.84;;;26.60;59.40
64200;BME280;50516;52.272;5.136;2022-08-03T09:44:39;101533.69;;;26.44;59.63
64200;BME280;50516;52.272;5.136;2022-08-03T09:47:09;101518.69;;;26.56;58.93
64200;BME280;50516;52.272;5.136;2022-08-03T09:49:39;101527.06;;;26.68;58.49
64200;BME280;50516;52.272;5.136;2022-08-03T09:52:18;101527.50;;;26.54;59.11
64200;BME280;50516;52.272;5.136;2022-08-03T09:54:52;101528.50;;;26.62;58.88
64200;BME280;50516;52.272;5.136;2022-08-03T09:57:25;101522.84;;;26.62;58.99
64200;BME280;50516;52.272;5.136;2022-08-03T09:59:52;101532.84;;;26.75;58.42
64200;BME280;50516;52.272;5.136;2022-08-03T10:02:23;101532.00;;;26.91;57.85
64200;BME280;50516;52.272;5.136;2022-08-03T10:04:49;101530.66;;;26.85;57.21
64200;BME280;50516;52.272;5.136;2022-08-03T10:07:19;101541.63;;;26.90;57.89
64200;BME280;50516;52.272;5.136;2022-08-03T10:09:59;101540.00;;;26.89;57.47
64200;BME280;50516;52.272;5.136;2022-08-03T10:12:25;101525.72;;;26.98;57.53
64200;BME280;50516;52.272;5.136;2022-08-03T10:14:51;101525.09;;;26.88;57.87
64200;BME280;50516;52.272;5.136;2022-08-03T10:17:17;101533.06;;;27.02;58.13
64200;BME280;50516;52.272;5.136;2022-08-03T10:19:43;101523.81;;;27.21;56.91
64200;BME280;50516;52.272;5.136;2022-08-03T10:22:15;101532.16;;;27.18;56.67
64200;BME280;50516;52.272;5.136;2022-08-03T10:24:59;101522.84;;;27.13;56.31
64200;BME280;50516;52.272;5.136;2022-08-03T10:27:31;101521.72;;;26.99;56.86
64200;BME280;50516;52.272;5.136;2022-08-03T10:30:00;101523.88;;;27.25;56.47
64200;BME280;50516;52.272;5.136;2022-08-03T10:32:40;101524.97;;;27.20;56.55
64200;BME280;50516;52.272;5.136;2022-08-03T10:35:12;101517.59;;;27.31;56.38
64200;BME280;50516;52.272;5.136;2022-08-03T10:37:47;101515.06;;;27.26;56.40
64200;BME280;50516;52.272;5.136;2022-08-03T10:40:15;101519.78;;;27.22;56.41
64200;BME280;50516;52.272;5.136;2022-08-03T10:42:44;101518.91;;;27.18;56.92
64200;BME280;50516;52.272;5.136;2022-08-03T10:45:18;101521.28;;;27.36;55.61
64200;BME280;50516;52.272;5.136;2022-08-03T10:47:46;101517.00;;;27.42;55.53
64200;BME280;50516;52.272;5.136;2022-08-03T10:50:12;101523.16;;;27.47;55.69
64200;BME280;50516;52.272;5.136;2022-08-03T10:52:59;101516.78;;;27.50;55.32
64200;BME280;50516;52.272;5.136;2022-08-03T11:01:10;101513.28;;;27.57;55.39
64200;BME280;50516;52.272;5.136;2022-08-03T11:06:19;101513.91;;;27.70;55.37
64200;BME280;50516;52.272;5.136;2022-08-03T11:08:46;101513.97;;;27.74;55.52
64200;BME280;50516;52.272;5.136;2022-08-03T11:14:07;101501.91;;;27.73;54.12
64200;BME280;50516;52.272;5.136;2022-08-03T11:16:38;101501.44;;;27.71;54.69
64200;BME280;50516;52.272;5.136;2022-08-03T11:19:11;101508.50;;;27.81;54.10
64200;BME280;50516;52.272;5.136;2022-08-03T11:30:11;101503.31;;;28.06;52.87
64200;BME280;50516;52.272;5.136;2022-08-03T11:32:56;101515.03;;;28.08;52.97
64200;BME280;50516;52.272;5.136;2022-08-03T11:40:45;101506.59;;;27.88;51.73
64200;BME280;50516;52.272;5.136;2022-08-03T11:45:57;101506.56;;;28.08;51.25
64200;BME280;50516;52.272;5.136;2022-08-03T11:48:26;101509.09;;;28.13;50.85
64200;BME280;50516;52.272;5.136;2022-08-03T11:50:51;101503.44;;;28.13;51.51
64200;BME280;50516;52.272;5.136;2022-08-03T11:53:18;101496.78;;;28.25;51.63
64200;BME280;50516;52.272;5.136;2022-08-03T11:55:45;101501.38;;;28.37;50.79
64200;BME280;50516;52.272;5.136;2022-08-03T11:58:22;101507.47;;;28.39;51.20
64200;BME280;50516;52.272;5.136;2022-08-03T12:00:49;101508.25;;;28.36;50.99
64200;BME280;50516;52.272;5.136;2022-08-03T12:03:16;101504.84;;;28.27;50.62
64200;BME280;50516;52.272;5.136;2022-08-03T12:05:47;101495.78;;;28.40;50.33
64200;BME280;50516;52.272;5.136;2022-08-03T12:08:14;101504.63;;;28.39;50.38
64200;BME280;50516;52.272;5.136;2022-08-03T12:10:46;101508.38;;;28.47;49.77
64200;BME280;50516;52.272;5.136;2022-08-03T12:13:12;101504.53;;;28.32;49.38
64200;BME280;50516;52.272;5.136;2022-08-03T12:15:37;101503.78;;;28.35;49.41
64200;BME280;50516;52.272;5.136;2022-08-03T12:18:12;101499.00;;;28.39;49.58
64200;BME280;50516;52.272;5.136;2022-08-03T12:20:39;101503.25;;;28.52;49.09
64200;BME280;50516;52.272;5.136;2022-08-03T12:23:06;101496.28;;;28.73;48.98
64200;BME280;50516;52.272;5.136;2022-08-03T12:25:33;101500.41;;;28.79;47.68
64200;BME280;50516;52.272;5.136;2022-08-03T12:30:31;101498.19;;;28.92;48.21
64200;BME280;50516;52.272;5.136;2022-08-03T12:32:57;101488.59;;;29.00;47.60
64200;BME280;50516;52.272;5.136;2022-08-03T12:35:23;101494.25;;;29.00;48.57
64200;BME280;50516;52.272;5.136;2022-08-03T12:37:50;101493.06;;;29.01;47.65
64200;BME280;50516;52.272;5.136;2022-08-03T12:40:24;101493.41;;;28.96;48.07
64200;BME280;50516;52.272;5.136;2022-08-03T12:42:51;101490.66;;;29.03;47.72
64200;BME280;50516;52.272;5.136;2022-08-03T12:45:18;101488.97;;;28.99;47.77
64200;BME280;50516;52.272;5.136;2022-08-03T12:47:55;101479.31;;;29.00;47.38
64200;BME280;50516;52.272;5.136;2022-08-03T12:50:35;101485.84;;;29.04;47.37
64200;BME280;50516;52.272;5.136;2022-08-03T12:53:09;101485.13;;;29.14;47.22
64200;BME280;50516;52.272;5.136;2022-08-03T12:55:36;101484.44;;;29.21;46.82
64200;BME280;50516;52.272;5.136;2022-08-03T12:58:04;101481.38;;;29.33;46.23
64200;BME280;50516;52.272;5.136;2022-08-03T13:00:30;101486.16;;;29.29;46.10
64200;BME280;50516;52.272;5.136;2022-08-03T13:03:04;101485.75;;;29.30;46.87
64200;BME280;50516;52.272;5.136;2022-08-03T13:05:31;101486.31;;;29.43;46.86
64200;BME280;50516;52.272;5.136;2022-08-03T13:07:57;101486.28;;;29.40;47.08
64200;BME280;50516;52.272;5.136;2022-08-03T13:10:32;101485.75;;;29.30;46.78
64200;BME280;50516;52.272;5.136;2022-08-03T13:12:58;101486.53;;;29.27;47.51
64200;BME280;50516;52.272;5.136;2022-08-03T13:15:25;101477.03;;;29.43;47.16
64200;BME280;50516;52.272;5.136;2022-08-03T13:17:53;101486.84;;;29.53;46.96
64200;BME280;50516;52.272;5.136;2022-08-03T13:20:19;101486.69;;;29.42;47.16
64200;BME280;50516;52.272;5.136;2022-08-03T13:22:46;101481.13;;;29.49;47.17
64200;BME280;50516;52.272;5.136;2022-08-03T13:25:12;101481.59;;;29.55;47.08
64200;BME280;50516;52.272;5.136;2022-08-03T13:27:38;101488.97;;;29.66;47.15
64200;BME280;50516;52.272;5.136;2022-08-03T13:30:04;101485.94;;;29.82;46.67
64200;BME280;50516;52.272;5.136;2022-08-03T13:32:31;101487.19;;;29.85;45.58
64200;BME280;50516;52.272;5.136;2022-08-03T13:34:57;101483.94;;;29.83;46.02